sensor_id;sensor_type;location;lat;lon;timestamp;pressure;altitude;pressure_sealevel;temperature;humidity
77543;BME280;66669;52.100;5.104;2023-03-02T00:00:57;102568.59;;;19.87;35.02
77543;BME280;66669;52.100;5.104;2023-03-02T00:03:24;102562.53;;;19.85;34.57
77543;BME280;66669;52.100;5.104;2023-03-02T00:05:50;102565.31;;;19.85;34.31
77543;BME280;66669;52.100;5.104;2023-03-02T00:08:17;102575.13;;;19.82;34.33
77543;BME280;66669;52.100;5.104;2023-03-02T00:10:43;102576.59;;;19.80;34.98
77543;BME280;66669;52.100;5.104;2023-03-02T00:13:10;102565.16;;;19.73;34.66
77543;BME280;66669;52.100;5.104;2023-03-02T00:15:36;102559.75;;;19.67;34.65
77543;BME280;66669;52.100;5.104;2023-03-02T00:18:01;102564.19;;;19.68;34.79
77543;BME280;66669;52.100;5.104;2023-03-02T00:20:27;102561.56;;;19.63;34.98
77543;BME280;66669;52.100;5.104;2023-03-02T00:22:52;102560.44;;;19.64;34.76
77543;BME280;66669;52.100;5.104;2023-03-02T00:25:18;102558.28;;;19.61;35.01
77543;BME280;66669;52.100;5.104;2023-03-02T00:27:43;102559.25;;;19.57;34.95
77543;BME280;66669;52.100;5.104;2023-03-02T00:30:10;102555.47;;;19.53;35.12
77543;BME280;66669;52.100;5.104;2023-03-02T00:32:36;102557.94;;;19.54;34.78
77543;BME280;66669;52.100;5.104;2023-03-02T00:35:02;102553.03;;;19.51;35.07
77543;BME280;66669;52.100;5.104;2023-03-02T00:37:28;102555.81;;;19.51;34.48
77543;BME280;66669;52.100;5.104;2023-03-02T00:39:53;102554.97;;;19.51;35.01
77543;BME280;66669;52.100;5.104;2023-03-02T00:42:20;102554.03;;;19.55;34.82
77543;BME280;66669;52.100;5.104;2023-03-02T00:44:45;102554.03;;;19.55;34.42
77543;BME280;66669;52.100;5.104;2023-03-02T00:47:11;102547.97;;;19.44;35.07
77543;BME280;66669;52.100;5.104;2023-03-02T00:49:36;102552.53;;;19.58;35.07
77543;BME280;66669;52.100;5.104;2023-03-02T00:52:05;102547.16;;;19.61;34.99
77543;BME280;66669;52.100;5.104;2023-03-02T00:54:30;102548.97;;;19.66;34.96
77543;BME280;66669;52.100;5.104;2023-03-02T00:56:56;102548.78;;;19.62;34.93
77543;BME280;66669;52.100;5.104;2023-03-02T00:59:22;102545.69;;;19.55;35.11
77543;BME280;66669;52.100;5.104;2023-03-02T01:01:53;102546.63;;;19.51;35.12
77543;BME280;66669;52.100;5.104;2023-03-02T01:06:54;102549.59;;;19.37;35.30
77543;BME280;66669;52.100;5.104;2023-03-02T01:09:20;102551.38;;;19.33;35.19
77543;BME280;66669;52.100;5.104;2023-03-02T01:11:45;102549.41;;;19.33;35.34
77543;BME280;66669;52.100;5.104;2023-03-02T01:14:10;102548.59;;;19.33;35.57
77543;BME280;66669;52.100;5.104;2023-03-02T01:16:36;102546.97;;;19.32;35.51
77543;BME280;66669;52.100;5.104;2023-03-02T01:19:01;102547.13;;;19.35;35.39
77543;BME280;66669;52.100;5.104;2023-03-02T01:21:27;102552.34;;;19.28;35.35
77543;BME280;66669;52.100;5.104;2023-03-02T01:23:52;102546.97;;;19.32;35.56
77543;BME280;66669;52.100;5.104;2023-03-02T01:26:17;102557.28;;;19.31;35.44
77543;BME280;66669;52.100;5.104;2023-03-02T01:28:43;102549.25;;;19.30;35.40
77543;BME280;66669;52.100;5.104;2023-03-02T01:31:08;102546.47;;;19.30;35.54
77543;BME280;66669;52.100;5.104;2023-03-02T01:33:34;102545.34;;;19.22;35.65
77543;BME280;66669;52.100;5.104;2023-03-02T01:35:59;102556.94;;;19.24;35.68
77543;BME280;66669;52.100;5.104;2023-03-02T01:38:24;102548.13;;;19.22;35.67
77543;BME280;66669;52.100;5.104;2023-03-02T01:40:50;102552.84;;;19.22;35.57
77543;BME280;66669;52.100;5.104;2023-03-02T01:43:15;102546.63;;;19.25;35.60
77543;BME280;66669;52.100;5.104;2023-03-02T01:46:20;102545.81;;;19.24;35.75
77543;BME280;66669;52.100;5.104;2023-03-02T01:51:23;102549.41;;;19.25;35.48
77543;BME280;66669;52.100;5.104;2023-03-02T01:53:52;102542.56;;;19.22;35.52
77543;BME280;66669;52.100;5.104;2023-03-02T01:56:22;102539.28;;;19.29;35.57
77543;BME280;66669;52.100;5.104;2023-03-02T01:58:52;102539.44;;;19.24;35.59
77543;BME280;66669;52.100;5.104;2023-03-02T02:01:18;102536.66;;;19.24;35.48
77543;BME280;66669;52.100;5.104;2023-03-02T02:03:48;102537.63;;;19.19;35.65
77543;BME280;66669;52.100;5.104;2023-03-02T02:06:23;102537.97;;;19.17;35.64
77543;BME280;66669;52.100;5.104;2023-03-02T02:08:49;102537.28;;;19.20;35.53
77543;BME280;66669;52.100;5.104;2023-03-02T02:11:15;102534.84;;;19.10;35.68
77543;BME280;66669;52.100;5.104;2023-03-02T02:13:42;102536.66;;;19.15;35.58
77543;BME280;66669;52.100;5.104;2023-03-02T02:16:07;102538.13;;;19.21;35.52
77543;BME280;66669;52.100;5.104;2023-03-02T02:18:35;102525.53;;;19.15;35.72
77543;BME280;66669;52.100;5.104;2023-03-02T02:21:01;102526.69;;;19.14;35.67
77543;BME280;66669;52.100;5.104;2023-03-02T02:23:43;102512.63;;;19.10;35.66
77543;BME280;66669;52.100;5.104;2023-03-02T02:28:52;102513.44;;;19.19;35.60
77543;BME280;66669;52.100;5.104;2023-03-02T02:31:44;102506.41;;;19.13;35.65
77543;BME280;66669;52.100;5.104;2023-03-02T02:34:15;102509.31;;;19.08;35.76
77543;BME280;66669;52.100;5.104;2023-03-02T02:36:46;102508.03;;;19.14;35.89
77543;BME280;66669;52.100;5.104;2023-03-02T02:39:24;102507.22;;;19.05;35.65
77543;BME280;66669;52.100;5.104;2023-03-02T02:41:54;102505.56;;;19.04;35.42
77543;BME280;66669;52.100;5.104;2023-03-02T02:44:20;102508.69;;;19.03;35.96
77543;BME280;66669;52.100;5.104;2023-03-02T02:46:46;102507.53;;;19.04;35.97
77543;BME280;66669;52.100;5.104;2023-03-02T02:51:46;102496.56;;;18.99;35.84
77543;BME280;66669;52.100;5.104;2023-03-02T02:54:16;102495.75;;;18.98;35.98
77543;BME280;66669;52.100;5.104;2023-03-02T02:56:42;102494.63;;;19.08;36.11
77543;BME280;66669;52.100;5.104;2023-03-02T02:59:16;102492.00;;;19.03;35.55
77543;BME280;66669;52.100;5.104;2023-03-02T03:01:43;102485.00;;;19.05;35.96
77543;BME280;66669;52.100;5.104;2023-03-02T03:04:11;102486.63;;;19.06;35.82
77543;BME280;66669;52.100;5.104;2023-03-02T03:06:49;102480.25;;;19.06;35.89
77543;BME280;66669;52.100;5.104;2023-03-02T03:09:15;102475.84;;;19.05;35.51
77543;BME280;66669;52.100;5.104;2023-03-02T03:11:42;102477.78;;;19.04;35.75
77543;BME280;66669;52.100;5.104;2023-03-02T03:14:13;102481.88;;;18.98;35.65
77543;BME280;66669;52.100;5.104;2023-03-02T03:16:41;102482.50;;;18.95;35.95
77543;BME280;66669;52.100;5.104;2023-03-02T03:19:23;102481.22;;;19.01;35.87
77543;BME280;66669;52.100;5.104;2023-03-02T03:21:52;102484.66;;;18.98;35.93
77543;BME280;66669;52.100;5.104;2023-03-02T03:24:17;102482.50;;;19.04;35.09
77543;BME280;66669;52.100;5.104;2023-03-02T03:26:43;102481.53;;;19.00;35.73
77543;BME280;66669;52.100;5.104;2023-03-02T03:29:10;102476.31;;;18.89;35.50
77543;BME280;66669;52.100;5.104;2023-03-02T03:31:35;102478.91;;;18.94;35.74
77543;BME280;66669;52.100;5.104;2023-03-02T03:34:01;102480.72;;;18.90;35.40
77543;BME280;66669;52.100;5.104;2023-03-02T03:36:28;102472.38;;;18.82;35.73
77543;BME280;66669;52.100;5.104;2023-03-02T03:38:55;102478.41;;;18.75;35.72
77543;BME280;66669;52.100;5.104;2023-03-02T03:41:21;102491.00;;;18.81;35.95
77543;BME280;66669;52.100;5.104;2023-03-02T03:43:46;102488.84;;;18.78;35.80
77543;BME280;66669;52.100;5.104;2023-03-02T03:46:12;102482.66;;;18.81;35.84
77543;BME280;66669;52.100;5.104;2023-03-02T03:48:38;102486.59;;;18.80;35.84
77543;BME280;66669;52.100;5.104;2023-03-02T03:51:04;102488.03;;;18.78;35.75
77543;BME280;66669;52.100;5.104;2023-03-02T03:53:30;102496.19;;;18.74;35.84
77543;BME280;66669;52.100;5.104;2023-03-02T03:55:55;102493.13;;;18.76;35.83
77543;BME280;66669;52.100;5.104;2023-03-02T03:58:23;102496.38;;;18.78;35.86
77543;BME280;66669;52.100;5.104;2023-03-02T04:00:49;102498.69;;;18.84;35.71
77543;BME280;66669;52.100;5.104;2023-03-02T04:03:15;102490.03;;;18.86;35.76
77543;BME280;66669;52.100;5.104;2023-03-02T04:05:41;102500.31;;;18.77;35.83
77543;BME280;66669;52.100;5.104;2023-03-02T04:08:06;102495.72;;;18.81;35.79
77543;BME280;66669;52.100;5.104;2023-03-02T04:10:32;102492.31;;;18.75;36.03
77543;BME280;66669;52.100;5.104;2023-03-02T04:12:58;102497.34;;;18.73;35.98
77543;BME280;66669;52.100;5.104;2023-03-02T04:15:23;102485.91;;;18.75;35.84
77543;BME280;66669;52.100;5.104;2023-03-02T04:17:49;102487.22;;;18.77;35.81
77543;BME280;66669;52.100;5.104;2023-03-02T04:20:15;102489.81;;;18.74;35.71
77543;BME280;66669;52.100;5.104;2023-03-02T04:22:45;102480.19;;;18.71;35.92
77543;BME280;66669;52.100;5.104;2023-03-02T04:25:13;102482.97;;;18.71;35.97
77543;BME280;66669;52.100;5.104;2023-03-02T04:27:39;102478.41;;;18.75;35.98
77543;BME280;66669;52.100;5.104;2023-03-02T04:30:05;102485.44;;;18.81;36.00
77543;BME280;66669;52.100;5.104;2023-03-02T04:32:31;102480.84;;;18.77;36.05
77543;BME280;66669;52.100;5.104;2023-03-02T04:34:57;102484.94;;;18.79;36.05
77543;BME280;66669;52.100;5.104;2023-03-02T04:37:22;102485.25;;;18.78;35.89
77543;BME280;66669;52.100;5.104;2023-03-02T04:39:48;102479.88;;;18.81;35.79
77543;BME280;66669;52.100;5.104;2023-03-02T04:42:17;102491.63;;;18.78;35.70
77543;BME280;66669;52.100;5.104;2023-03-02T04:44:42;102491.00;;;18.81;35.87
77543;BME280;66669;52.100;5.104;2023-03-02T04:47:09;102483.63;;;18.77;35.91
77543;BME280;66669;52.100;5.104;2023-03-02T04:49:34;102486.75;;;18.75;35.81
77543;BME280;66669;52.100;5.104;2023-03-02T04:52:00;102483.47;;;18.73;35.46
77543;BME280;66669;52.100;5.104;2023-03-02T04:54:26;102481.59;;;18.60;35.83
77543;BME280;66669;52.100;5.104;2023-03-02T04:56:51;102484.22;;;18.65;35.72
77543;BME280;66669;52.100;5.104;2023-03-02T04:59:20;102486.81;;;18.61;35.59
77543;BME280;66669;52.100;5.104;2023-03-02T05:01:47;102485.53;;;18.59;35.66
77543;BME280;66669;52.100;5.104;2023-03-02T05:04:13;102492.19;;;18.58;35.84
77543;BME280;66669;52.100;5.104;2023-03-02T05:06:38;102483.56;;;18.59;35.31
77543;BME280;66669;52.100;5.104;2023-03-02T05:09:04;102480.78;;;18.59;36.03
77543;BME280;66669;52.100;5.104;2023-03-02T05:11:30;102474.41;;;18.59;36.00
77543;BME280;66669;52.100;5.104;2023-03-02T05:14:01;102474.44;;;18.67;35.91
77543;BME280;66669;52.100;5.104;2023-03-02T05:16:28;102479.63;;;18.60;35.67
77543;BME280;66669;52.100;5.104;2023-03-02T05:18:54;102479.31;;;18.62;35.87
77543;BME280;66669;52.100;5.104;2023-03-02T05:21:20;102473.28;;;18.60;35.82
77543;BME280;66669;52.100;5.104;2023-03-02T05:23:45;102471.47;;;18.55;35.83
77543;BME280;66669;52.100;5.104;2023-03-02T05:26:12;102471.66;;;18.59;35.98
77543;BME280;66669;52.100;5.104;2023-03-02T05:28:38;102462.50;;;18.58;36.06
77543;BME280;66669;52.100;5.104;2023-03-02T05:31:04;102468.97;;;18.45;35.54
77543;BME280;66669;52.100;5.104;2023-03-02T05:33:29;102462.00;;;18.56;35.37
77543;BME280;66669;52.100;5.104;2023-03-02T05:35:55;102462.91;;;18.34;36.12
77543;BME280;66669;52.100;5.104;2023-03-02T05:38:20;102464.28;;;18.14;34.00
77543;BME280;66669;52.100;5.104;2023-03-02T05:40:46;102467.63;;;18.25;35.43
77543;BME280;66669;52.100;5.104;2023-03-02T05:43:15;102470.41;;;18.34;36.42
77543;BME280;66669;52.100;5.104;2023-03-02T05:45:43;102458.47;;;18.25;35.19
77543;BME280;66669;52.100;5.104;2023-03-02T05:48:09;102463.56;;;18.40;36.35
77543;BME280;66669;52.100;5.104;2023-03-02T05:50:34;102465.34;;;18.36;35.59
77543;BME280;66669;52.100;5.104;2023-03-02T05:53:00;102470.91;;;18.36;35.47
77543;BME280;66669;52.100;5.104;2023-03-02T05:55:27;102467.84;;;18.46;36.33
77543;BME280;66669;52.100;5.104;2023-03-02T05:57:52;102476.00;;;18.42;35.15
77543;BME280;66669;52.100;5.104;2023-03-02T06:00:18;102470.63;;;18.46;36.23
77543;BME280;66669;52.100;5.104;2023-03-02T06:02:44;102475.50;;;18.49;36.19
77543;BME280;66669;52.100;5.104;2023-03-02T06:05:13;102481.72;;;18.46;36.01
77543;BME280;66669;52.100;5.104;2023-03-02T06:07:39;102488.72;;;18.43;35.89
77543;BME280;66669;52.100;5.104;2023-03-02T06:10:05;102481.84;;;18.41;36.08
77543;BME280;66669;52.100;5.104;2023-03-02T06:12:31;102483.63;;;18.37;35.88
77543;BME280;66669;52.100;5.104;2023-03-02T06:14:57;102486.28;;;18.42;35.90
77543;BME280;66669;52.100;5.104;2023-03-02T06:17:23;102483.97;;;18.35;35.66
77543;BME280;66669;52.100;5.104;2023-03-02T06:19:49;102490.84;;;18.38;35.98
77543;BME280;66669;52.100;5.104;2023-03-02T06:22:14;102488.53;;;18.40;36.06
77543;BME280;66669;52.100;5.104;2023-03-02T06:24:40;102496.72;;;18.45;35.89
77543;BME280;66669;52.100;5.104;2023-03-02T06:27:05;102499.38;;;18.50;35.57
77543;BME280;66669;52.100;5.104;2023-03-02T06:29:30;102493.31;;;18.48;36.00
77543;BME280;66669;52.100;5.104;2023-03-02T06:31:56;102499.69;;;18.49;36.08
77543;BME280;66669;52.100;5.104;2023-03-02T06:34:21;102503.94;;;18.46;35.84
77543;BME280;66669;52.100;5.104;2023-03-02T06:36:46;102508.50;;;18.42;35.79
77543;BME280;66669;52.100;5.104;2023-03-02T06:39:12;102507.00;;;18.44;35.80
77543;BME280;66669;52.100;5.104;2023-03-02T06:41:49;102512.25;;;18.46;36.12
77543;BME280;66669;52.100;5.104;2023-03-02T06:44:16;102510.59;;;18.45;36.03
77543;BME280;66669;52.100;5.104;2023-03-02T06:46:42;102506.53;;;18.42;35.56
77543;BME280;66669;52.100;5.104;2023-03-02T06:49:08;102516.16;;;18.45;36.00
77543;BME280;66669;52.100;5.104;2023-03-02T06:51:34;102515.34;;;18.44;35.88
77543;BME280;66669;52.100;5.104;2023-03-02T06:54:00;102519.72;;;18.37;36.12
77543;BME280;66669;52.100;5.104;2023-03-02T06:56:25;102522.00;;;18.35;35.63
77543;BME280;66669;52.100;5.104;2023-03-02T06:58:51;102519.41;;;18.38;35.84
77543;BME280;66669;52.100;5.104;2023-03-02T07:01:17;102522.00;;;18.35;35.88
77543;BME280;66669;52.100;5.104;2023-03-02T07:03:43;102521.81;;;18.31;36.03
77543;BME280;66669;52.100;5.104;2023-03-02T07:06:10;102518.59;;;18.38;35.69
77543;BME280;66669;52.100;5.104;2023-03-02T07:08:36;102518.09;;;18.36;35.54
77543;BME280;66669;52.100;5.104;2023-03-02T07:11:06;102514.34;;;18.40;35.92
77543;BME280;66669;52.100;5.104;2023-03-02T07:13:32;102526.78;;;18.43;35.99
77543;BME280;66669;52.100;5.104;2023-03-02T07:15:58;102524.78;;;18.35;35.93
77543;BME280;66669;52.100;5.104;2023-03-02T07:18:23;102519.09;;;18.40;35.69
77543;BME280;66669;52.100;5.104;2023-03-02T07:20:48;102522.81;;;18.35;36.16
77543;BME280;66669;52.100;5.104;2023-03-02T07:23:14;102515.94;;;18.33;35.93
77543;BME280;66669;52.100;5.104;2023-03-02T07:25:39;102517.31;;;18.44;35.73
77543;BME280;66669;52.100;5.104;2023-03-02T07:28:05;102521.41;;;18.47;35.81
77543;BME280;66669;52.100;5.104;2023-03-02T07:30:30;102520.25;;;18.48;35.86
77543;BME280;66669;52.100;5.104;2023-03-02T07:32:55;102517.97;;;18.50;35.65
77543;BME280;66669;52.100;5.104;2023-03-02T07:35:21;102512.28;;;18.55;35.77
77543;BME280;66669;52.100;5.104;2023-03-02T07:37:47;102511.47;;;18.54;35.84
77543;BME280;66669;52.100;5.104;2023-03-02T07:40:12;102509.59;;;18.41;35.29
77543;BME280;66669;52.100;5.104;2023-03-02T07:42:38;102506.03;;;18.40;34.99
77543;BME280;66669;52.100;5.104;2023-03-02T07:45:04;102504.53;;;18.34;35.15
77543;BME280;66669;52.100;5.104;2023-03-02T07:50:35;102507.28;;;18.26;35.50
77543;BME280;66669;52.100;5.104;2023-03-02T07:53:00;102498.84;;;18.39;36.32
77543;BME280;66669;52.100;5.104;2023-03-02T07:55:26;102500.63;;;18.35;35.73
77543;BME280;66669;52.100;5.104;2023-03-02T07:57:52;102501.63;;;18.39;35.82
77543;BME280;66669;52.100;5.104;2023-03-02T08:00:18;102501.97;;;18.47;35.69
77543;BME280;66669;52.100;5.104;2023-03-02T08:02:44;102502.94;;;18.42;35.83
77543;BME280;66669;52.100;5.104;2023-03-02T08:05:10;102504.06;;;18.41;35.36
77543;BME280;66669;52.100;5.104;2023-03-02T08:07:36;102513.78;;;18.21;35.28
77543;BME280;66669;52.100;5.104;2023-03-02T08:10:01;102506.91;;;18.18;35.71
77543;BME280;66669;52.100;5.104;2023-03-02T08:12:27;102507.00;;;18.05;34.52
77543;BME280;66669;52.100;5.104;2023-03-02T08:14:52;102500.72;;;18.22;35.83
77543;BME280;66669;52.100;5.104;2023-03-02T08:17:18;102507.41;;;18.20;35.70
77543;BME280;66669;52.100;5.104;2023-03-02T08:19:43;102499.06;;;18.12;35.81
77543;BME280;66669;52.100;5.104;2023-03-02T08:22:09;102496.59;;;18.10;35.87
77543;BME280;66669;52.100;5.104;2023-03-02T08:24:34;102489.81;;;17.94;34.75
77543;BME280;66669;52.100;5.104;2023-03-02T08:27:01;102503.81;;;18.20;35.84
77543;BME280;66669;52.100;5.104;2023-03-02T08:29:26;102498.13;;;18.25;35.84
77543;BME280;66669;52.100;5.104;2023-03-02T08:31:51;102492.44;;;18.30;35.17
77543;BME280;66669;52.100;5.104;2023-03-02T08:34:17;102500.81;;;18.39;35.75
77543;BME280;66669;52.100;5.104;2023-03-02T08:36:42;102498.50;;;18.41;35.74
77543;BME280;66669;52.100;5.104;2023-03-02T08:39:08;102503.53;;;18.70;36.36
77543;BME280;66669;52.100;5.104;2023-03-02T08:41:34;102501.75;;;18.74;36.30
77543;BME280;66669;52.100;5.104;2023-03-02T08:43:59;102500.31;;;18.85;35.94
77543;BME280;66669;52.100;5.104;2023-03-02T08:46:25;102499.97;;;18.87;35.96
77543;BME280;66669;52.100;5.104;2023-03-02T08:48:50;102506.22;;;18.84;36.11
77543;BME280;66669;52.100;5.104;2023-03-02T08:51:21;102492.00;;;18.94;35.61
77543;BME280;66669;52.100;5.104;2023-03-02T08:53:48;102497.19;;;18.87;31.84
77543;BME280;66669;52.100;5.104;2023-03-02T08:58:50;102493.16;;;19.28;36.62
77543;BME280;66669;52.100;5.104;2023-03-02T09:01:22;102492.19;;;19.32;36.03
77543;BME280;66669;52.100;5.104;2023-03-02T09:03:48;102499.72;;;19.23;35.10
77543;BME280;66669;52.100;5.104;2023-03-02T09:06:13;102492.34;;;19.18;33.84
77543;BME280;66669;52.100;5.104;2023-03-02T09:08:39;102496.09;;;19.14;34.69
77543;BME280;66669;52.100;5.104;2023-03-02T09:11:05;102492.19;;;19.06;33.18
77543;BME280;66669;52.100;5.104;2023-03-02T09:13:30;102487.78;;;19.14;36.24
77543;BME280;66669;52.100;5.104;2023-03-02T09:15:56;102492.50;;;19.05;36.45
77543;BME280;66669;52.100;5.104;2023-03-02T09:18:21;102502.66;;;19.27;36.74
77543;BME280;66669;52.100;5.104;2023-03-02T09:20:51;102498.06;;;19.13;34.54
77543;BME280;66669;52.100;5.104;2023-03-02T09:23:17;102500.69;;;19.44;36.88
77543;BME280;66669;52.100;5.104;2023-03-02T09:25:43;102495.47;;;19.43;36.33
77543;BME280;66669;52.100;5.104;2023-03-02T09:28:10;102502.66;;;19.44;36.51
77543;BME280;66669;52.100;5.104;2023-03-02T09:30:35;102500.84;;;19.39;36.08
77543;BME280;66669;52.100;5.104;2023-03-02T09:33:01;102502.97;;;19.34;34.89
77543;BME280;66669;52.100;5.104;2023-03-02T09:35:26;102503.13;;;19.37;34.70
77543;BME280;66669;52.100;5.104;2023-03-02T09:37:51;102504.63;;;19.26;34.91
77543;BME280;66669;52.100;5.104;2023-03-02T09:40:20;102506.41;;;19.31;35.32
77543;BME280;66669;52.100;5.104;2023-03-02T09:45:31;102502.47;;;19.49;34.54
77543;BME280;66669;52.100;5.104;2023-03-02T09:48:22;102502.66;;;19.44;35.97
77543;BME280;66669;52.100;5.104;2023-03-02T09:51:10;102510.19;;;19.69;36.48
77543;BME280;66669;52.100;5.104;2023-03-02T09:56:12;102509.19;;;19.48;34.83
77543;BME280;66669;52.100;5.104;2023-03-02T09:58:39;102502.47;;;19.49;32.43
77543;BME280;66669;52.100;5.104;2023-03-02T10:01:12;102501.66;;;19.40;33.70
77543;BME280;66669;52.100;5.104;2023-03-02T10:03:45;102496.44;;;19.47;35.87
77543;BME280;66669;52.100;5.104;2023-03-02T10:06:12;102502.19;;;19.68;36.26
77543;BME280;66669;52.100;5.104;2023-03-02T10:08:37;102496.25;;;19.87;36.07
77543;BME280;66669;52.100;5.104;2023-03-02T10:14:55;102490.69;;;19.87;35.02
77543;BME280;66669;52.100;5.104;2023-03-02T10:20:07;102495.66;;;20.19;36.39
77543;BME280;66669;52.100;5.104;2023-03-02T10:22:39;102495.84;;;20.14;35.94
77543;BME280;66669;52.100;5.104;2023-03-02T10:25:36;102496.75;;;19.89;31.66
77543;BME280;66669;52.100;5.104;2023-03-02T10:30:38;102494.22;;;20.05;35.65
77543;BME280;66669;52.100;5.104;2023-03-02T10:33:18;102484.56;;;20.11;35.19
77543;BME280;66669;52.100;5.104;2023-03-02T10:35:50;102486.44;;;19.89;32.51
77543;BME280;66669;52.100;5.104;2023-03-02T10:38:21;102482.47;;;19.99;35.86
77543;BME280;66669;52.100;5.104;2023-03-02T10:40:49;102480.31;;;20.05;35.90
77543;BME280;66669;52.100;5.104;2023-03-02T10:43:18;102486.41;;;19.98;33.48
77543;BME280;66669;52.100;5.104;2023-03-02T10:45:45;102478.69;;;20.04;35.13
77543;BME280;66669;52.100;5.104;2023-03-02T10:48:21;102478.72;;;19.86;33.13
77543;BME280;66669;52.100;5.104;2023-03-02T10:50:53;102475.84;;;20.12;35.89
77543;BME280;66669;52.100;5.104;2023-03-02T10:53:19;102479.19;;;20.06;32.77
77543;BME280;66669;52.100;5.104;2023-03-02T10:55:50;102477.41;;;20.31;36.12
77543;BME280;66669;52.100;5.104;2023-03-02T11:01:12;102472.53;;;19.81;33.82
77543;BME280;66669;52.100;5.104;2023-03-02T11:03:39;102465.28;;;19.88;34.24
77543;BME280;66669;52.100;5.104;2023-03-02T11:06:30;102459.34;;;20.07;35.32
77543;BME280;66669;52.100;5.104;2023-03-02T11:09:06;102468.03;;;20.06;33.20
77543;BME280;66669;52.100;5.104;2023-03-02T11:11:32;102461.09;;;20.21;33.85
77543;BME280;66669;52.100;5.104;2023-03-02T11:14:12;102452.97;;;20.07;31.83
77543;BME280;66669;52.100;5.104;2023-03-02T11:16:38;102452.47;;;20.05;33.43
77543;BME280;66669;52.100;5.104;2023-03-02T11:19:16;102442.09;;;20.23;36.60
77543;BME280;66669;52.100;5.104;2023-03-02T11:21:55;102450.53;;;20.35;34.25
77543;BME280;66669;52.100;5.104;2023-03-02T11:24:48;102447.31;;;20.24;31.45
77543;BME280;66669;52.100;5.104;2023-03-02T11:27:20;102445.25;;;20.51;36.34
77543;BME280;66669;52.100;5.104;2023-03-02T11:29:59;102443.44;;;20.76;36.57
77543;BME280;66669;52.100;5.104;2023-03-02T11:37:44;102446.63;;;20.36;30.56
77543;BME280;66669;52.100;5.104;2023-03-02T11:42:45;102440.34;;;20.39;33.72
77543;BME280;66669;52.100;5.104;2023-03-02T11:45:18;102440.09;;;20.32;36.14
77543;BME280;66669;52.100;5.104;2023-03-02T11:47:54;102437.13;;;19.99;31.67
77543;BME280;66669;52.100;5.104;2023-03-02T11:50:21;102449.81;;;20.17;34.08
77543;BME280;66669;52.100;5.104;2023-03-02T11:52:50;102433.81;;;20.35;34.79
77543;BME280;66669;52.100;5.104;2023-03-02T11:55:21;102438.06;;;20.50;35.64
77543;BME280;66669;52.100;5.104;2023-03-02T11:57:52;102431.34;;;20.42;32.69
77543;BME280;66669;52.100;5.104;2023-03-02T12:00:41;102426.47;;;20.30;32.87
77543;BME280;66669;52.100;5.104;2023-03-02T12:03:42;102426.53;;;20.22;33.92
77543;BME280;66669;52.100;5.104;2023-03-02T12:08:51;102428.22;;;20.43;34.37
77543;BME280;66669;52.100;5.104;2023-03-02T12:13:57;102421.97;;;20.17;31.58
77543;BME280;66669;52.100;5.104;2023-03-02T12:16:39;102412.19;;;20.11;30.20
77543;BME280;66669;52.100;5.104;2023-03-02T12:19:26;102405.06;;;20.22;31.91
77543;BME280;66669;52.100;5.104;2023-03-02T12:22:01;102412.91;;;20.29;31.60
77543;BME280;66669;52.100;5.104;2023-03-02T12:24:34;102410.28;;;20.32;32.85
77543;BME280;66669;52.100;5.104;2023-03-02T12:29:39;102396.81;;;20.64;34.72
77543;BME280;66669;52.100;5.104;2023-03-02T12:32:31;102404.03;;;20.65;30.30
77543;BME280;66669;52.100;5.104;2023-03-02T12:35:10;102404.03;;;20.65;32.97
77543;BME280;66669;52.100;5.104;2023-03-02T12:37:50;102405.38;;;20.59;33.52
77543;BME280;66669;52.100;5.104;2023-03-02T12:43:35;102393.22;;;20.63;32.03
77543;BME280;66669;52.100;5.104;2023-03-02T12:51:58;102391.25;;;20.64;34.09
77543;BME280;66669;52.100;5.104;2023-03-02T12:54:32;102392.69;;;20.49;32.16
77543;BME280;66669;52.100;5.104;2023-03-02T12:57:15;102398.25;;;20.49;33.86
77543;BME280;66669;52.100;5.104;2023-03-02T12:59:43;102381.81;;;20.48;33.73
77543;BME280;66669;52.100;5.104;2023-03-02T13:02:20;102388.25;;;20.48;32.33
77543;BME280;66669;52.100;5.104;2023-03-02T13:04:57;102385.31;;;20.44;33.79
77543;BME280;66669;52.100;5.104;2023-03-02T13:07:44;102373.72;;;20.63;34.12
77543;BME280;66669;52.100;5.104;2023-03-02T13:10:37;102385.06;;;20.58;32.04
77543;BME280;66669;52.100;5.104;2023-03-02T13:13:20;102373.06;;;20.66;34.45
77543;BME280;66669;52.100;5.104;2023-03-02T13:15:51;102370.78;;;20.81;33.93
77543;BME280;66669;52.100;5.104;2023-03-02T13:18:22;102367.69;;;20.82;34.17
77543;BME280;66669;52.100;5.104;2023-03-02T13:20:48;102368.16;;;20.84;34.13
77543;BME280;66669;52.100;5.104;2023-03-02T13:23:16;102366.00;;;20.90;33.52
77543;BME280;66669;52.100;5.104;2023-03-02T13:25:59;102355.66;;;20.70;30.81
77543;BME280;66669;52.100;5.104;2023-03-02T13:28:28;102356.53;;;20.61;32.74
77543;BME280;66669;52.100;5.104;2023-03-02T13:31:04;102349.81;;;20.62;30.68
77543;BME280;66669;52.100;5.104;2023-03-02T13:33:31;102353.34;;;20.51;32.46
77543;BME280;66669;52.100;5.104;2023-03-02T13:35:58;102355.53;;;20.36;33.16
77543;BME280;66669;52.100;5.104;2023-03-02T13:38:26;102349.53;;;20.26;32.92
77543;BME280;66669;52.100;5.104;2023-03-02T13:40:54;102353.84;;;20.23;32.72
77543;BME280;66669;52.100;5.104;2023-03-02T13:46:25;102351.63;;;20.08;31.97
77543;BME280;66669;52.100;5.104;2023-03-02T13:49:03;102350.00;;;20.07;32.40
77543;BME280;66669;52.100;5.104;2023-03-02T13:51:31;102350.59;;;20.12;33.16
77543;BME280;66669;52.100;5.104;2023-03-02T13:53:59;102345.09;;;20.04;33.53
77543;BME280;66669;52.100;5.104;2023-03-02T13:56:30;102347.91;;;19.95;31.07
77543;BME280;66669;52.100;5.104;2023-03-02T13:58:57;102343.28;;;20.08;33.03